Terminal Aerodrome Forecast
Issued by NWS

Home | Current Version | Previous Version | Text Only | Print | Product List | Glossary On
Versions: 1 2 3 4 5 6 7 8 9 10 11 12 13 14 15 16 17 18 19 20 21 22 23 24 25 26 27 28 29
133
FTUS44 KFWD 232322
TAFDAL
TAF
KDAL 232322Z 2400/2424 17016KT P6SM FEW060 FEW200
     FM240200 18011KT P6SM FEW250
     FM241100 19011KT P6SM SCT015
     FM241800 18015KT P6SM SCT040=

USA.gov is the U.S. government's official web portal to all federal, state and local government web resources and services.